createdAt,value
2022-10-19T00:00:54.621Z,11.25
2022-10-19T00:01:54.619Z,11.25
2022-10-19T00:02:54.570Z,11.25
2022-10-19T00:03:54.557Z,11.22
2022-10-19T00:04:54.548Z,11.25
2022-10-19T00:05:54.539Z,11.23
2022-10-19T00:06:54.521Z,11.23
2022-10-19T00:07:54.509Z,11.25
2022-10-19T00:08:54.496Z,11.26
2022-10-19T00:09:54.480Z,11.27
2022-10-19T00:10:54.467Z,11.29
2022-10-19T00:11:54.454Z,11.26
2022-10-19T00:12:54.444Z,11.26
2022-10-19T00:13:54.429Z,11.26
2022-10-19T00:14:54.419Z,11.25
2022-10-19T00:15:54.403Z,11.23
2022-10-19T00:16:54.412Z,11.22
2022-10-19T00:17:54.375Z,11.22
2022-10-19T00:18:54.362Z,11.18
2022-10-19T00:19:54.345Z,11.18
2022-10-19T00:20:54.351Z,11.15
2022-10-19T00:21:54.323Z,11.12
2022-10-19T00:22:54.311Z,11.11
2022-10-19T00:23:54.298Z,11.10
2022-10-19T00:24:54.292Z,11.08
2022-10-19T00:25:54.269Z,11.07
2022-10-19T00:26:54.260Z,11.07
2022-10-19T00:27:54.254Z,11.08
2022-10-19T00:28:54.326Z,11.10
2022-10-19T00:29:54.221Z,11.11
2022-10-19T00:30:54.205Z,11.11
2022-10-19T00:31:54.191Z,11.12
2022-10-19T00:32:54.203Z,11.12
2022-10-19T00:33:54.171Z,11.12
2022-10-19T00:34:54.153Z,11.12
2022-10-19T00:35:54.145Z,11.12
2022-10-19T00:36:54.128Z,11.12
2022-10-19T00:37:54.119Z,11.10
2022-10-19T00:38:54.103Z,11.07
2022-10-19T00:39:54.101Z,11.07
2022-10-19T00:40:54.072Z,11.08
2022-10-19T00:41:54.063Z,11.11
2022-10-19T00:42:54.047Z,11.14
2022-10-19T00:43:54.038Z,11.12
2022-10-19T00:44:54.027Z,11.12
2022-10-19T00:45:54.008Z,11.12
2022-10-19T00:46:53.997Z,11.11
2022-10-19T00:47:53.983Z,11.14
2022-10-19T00:48:53.997Z,11.15
2022-10-19T00:49:53.960Z,11.14
2022-10-19T00:50:53.949Z,11.12
2022-10-19T00:51:53.934Z,11.11
2022-10-19T00:52:53.919Z,11.11
2022-10-19T00:53:53.909Z,11.10
2022-10-19T00:54:53.896Z,11.10
2022-10-19T00:55:53.887Z,11.11
2022-10-19T00:56:53.871Z,11.11
2022-10-19T00:57:53.864Z,11.12
2022-10-19T00:58:53.844Z,11.11
2022-10-19T00:59:53.826Z,11.12
2022-10-19T01:00:54.028Z,11.17
2022-10-19T01:01:53.802Z,11.18
2022-10-19T01:02:53.794Z,11.22
2022-10-19T01:03:53.777Z,11.25
2022-10-19T01:04:53.798Z,11.25
2022-10-19T01:05:53.752Z,11.25
2022-10-19T01:06:53.746Z,11.26
2022-10-19T01:07:53.726Z,11.25
2022-10-19T01:08:53.714Z,11.26
2022-10-19T01:09:53.700Z,11.26
2022-10-19T01:10:53.695Z,11.27
2022-10-19T01:11:53.678Z,11.29
2022-10-19T01:12:53.662Z,11.27
2022-10-19T01:13:53.650Z,11.29
2022-10-19T01:14:53.640Z,11.32
2022-10-19T01:16:53.608Z,11.36
2022-10-19T01:17:53.595Z,11.37
2022-10-19T01:18:53.580Z,11.36
2022-10-19T01:19:53.569Z,11.40
2022-10-19T01:20:53.579Z,11.41
2022-10-19T01:21:53.547Z,11.43
2022-10-19T01:22:53.527Z,11.43
2022-10-19T01:23:53.521Z,11.45
2022-10-19T01:25:53.491Z,11.48
2022-10-19T01:26:53.479Z,11.48
2022-10-19T01:27:53.469Z,11.48
2022-10-19T01:28:53.477Z,11.50
2022-10-19T01:29:53.442Z,11.47
2022-10-19T01:30:53.430Z,11.45
2022-10-19T01:31:53.418Z,11.41
2022-10-19T01:32:53.407Z,11.40
2022-10-19T01:33:53.420Z,11.36
2022-10-19T01:34:53.383Z,11.35
2022-10-19T01:35:53.371Z,11.32
2022-10-19T01:36:53.381Z,11.32
2022-10-19T01:37:53.342Z,11.32
2022-10-19T01:38:53.328Z,11.35
2022-10-19T01:39:53.311Z,11.37
2022-10-19T01:40:53.296Z,11.37
2022-10-19T01:41:53.287Z,11.36
2022-10-19T01:43:53.265Z,11.37
2022-10-19T01:44:53.253Z,11.37
2022-10-19T01:45:53.239Z,11.37
2022-10-19T01:46:53.232Z,11.35
2022-10-19T01:47:53.218Z,11.32
2022-10-19T01:48:53.204Z,11.30
2022-10-19T01:49:53.186Z,11.32
2022-10-19T01:50:53.174Z,11.30
2022-10-19T01:51:53.187Z,11.32
2022-10-19T01:52:53.174Z,11.33
2022-10-19T01:53:53.137Z,11.32
2022-10-19T01:54:53.126Z,11.30
2022-10-19T01:55:53.112Z,11.35
2022-10-19T01:56:53.093Z,11.35
2022-10-19T01:57:53.086Z,11.35
2022-10-19T01:58:53.079Z,11.36
2022-10-19T01:59:53.067Z,11.37
2022-10-19T02:00:53.197Z,11.40
2022-10-19T02:01:53.033Z,11.40
2022-10-19T02:02:53.019Z,11.41
2022-10-19T02:03:53.006Z,11.43
2022-10-19T02:04:53.001Z,11.43
2022-10-19T02:05:52.982Z,11.44
2022-10-19T02:06:52.970Z,11.45
2022-10-19T02:07:52.955Z,11.48
2022-10-19T02:08:52.963Z,11.47
2022-10-19T02:09:52.933Z,11.50
2022-10-19T02:10:52.916Z,11.50
2022-10-19T02:11:56.162Z,11.54
2022-10-19T02:12:52.896Z,11.55
2022-10-19T02:13:52.877Z,11.55
2022-10-19T02:14:52.872Z,11.62
2022-10-19T02:15:52.850Z,11.62
2022-10-19T02:16:52.839Z,11.65
2022-10-19T02:17:52.830Z,11.68
2022-10-19T02:18:52.814Z,11.68
2022-10-19T02:19:52.803Z,11.69
2022-10-19T02:20:52.788Z,11.66
2022-10-19T02:21:52.778Z,11.68
2022-10-19T02:22:52.761Z,11.66
2022-10-19T02:23:54.236Z,11.68
2022-10-19T02:24:52.765Z,11.70
2022-10-19T02:25:52.726Z,11.72
2022-10-19T02:26:52.710Z,11.73
2022-10-19T02:27:52.702Z,11.75
2022-10-19T02:28:52.686Z,11.72
2022-10-19T02:29:52.671Z,11.73
2022-10-19T02:30:52.662Z,11.72
2022-10-19T02:31:52.647Z,11.70
2022-10-19T02:32:52.633Z,11.73
2022-10-19T02:33:52.627Z,11.72
2022-10-19T02:34:52.611Z,11.75
2022-10-19T02:35:52.595Z,11.75
2022-10-19T02:36:52.581Z,11.75
2022-10-19T02:37:52.571Z,11.73
2022-10-19T02:38:52.555Z,11.73
2022-10-19T02:39:52.551Z,11.73
2022-10-19T02:40:52.566Z,11.73
2022-10-19T02:41:52.517Z,11.73
2022-10-19T02:42:52.510Z,11.73
2022-10-19T02:43:52.540Z,11.73
2022-10-19T02:44:52.485Z,11.73
2022-10-19T02:45:52.466Z,11.73
2022-10-19T02:46:52.455Z,11.75
2022-10-19T02:47:52.450Z,11.73
2022-10-19T02:48:52.430Z,11.75
2022-10-19T02:49:52.419Z,11.73
2022-10-19T02:50:52.402Z,11.73
2022-10-19T02:51:52.394Z,11.72
2022-10-19T02:52:52.380Z,11.73
2022-10-19T02:53:52.366Z,11.78
2022-10-19T02:54:52.354Z,11.77
2022-10-19T02:55:52.343Z,11.78
2022-10-19T02:56:52.348Z,11.80
2022-10-19T02:57:52.311Z,11.81
2022-10-19T02:58:52.300Z,11.83
2022-10-19T02:59:52.290Z,11.84
2022-10-19T03:00:52.359Z,11.84
2022-10-19T03:01:52.264Z,11.84
2022-10-19T03:02:52.249Z,11.83
2022-10-19T03:03:52.243Z,11.84
2022-10-19T03:04:52.235Z,11.84
2022-10-19T03:05:52.208Z,11.86
2022-10-19T03:06:52.196Z,11.86
2022-10-19T03:07:52.198Z,11.86
2022-10-19T03:08:52.169Z,11.88
2022-10-19T03:09:52.158Z,11.87
2022-10-19T03:10:52.148Z,11.87
2022-10-19T03:11:52.140Z,11.87
2022-10-19T03:12:52.149Z,11.88
2022-10-19T03:13:52.108Z,11.87
2022-10-19T03:14:52.099Z,11.87
2022-10-19T03:15:52.094Z,11.84
2022-10-19T03:16:52.066Z,11.84
2022-10-19T03:17:52.131Z,11.84
2022-10-19T03:18:52.043Z,11.84
2022-10-19T03:19:52.035Z,11.86
2022-10-19T03:20:52.014Z,11.86
2022-10-19T03:21:52.006Z,11.88
2022-10-19T03:23:51.979Z,11.87
2022-10-19T03:24:51.972Z,11.87
2022-10-19T03:25:51.952Z,11.86
2022-10-19T03:26:51.941Z,11.88
2022-10-19T03:27:51.928Z,11.87
2022-10-19T03:28:51.976Z,11.86
2022-10-19T03:29:51.902Z,11.87
2022-10-19T03:30:51.888Z,11.88
2022-10-19T03:31:51.876Z,11.88
2022-10-19T03:32:51.863Z,11.91
2022-10-19T03:33:51.854Z,11.91
2022-10-19T03:34:51.837Z,11.94
2022-10-19T03:35:51.834Z,11.95
2022-10-19T03:36:51.820Z,11.95
2022-10-19T03:37:51.802Z,12.00
2022-10-19T03:38:51.786Z,12.00
2022-10-19T03:39:51.776Z,12.00
2022-10-19T03:40:51.763Z,12.02
2022-10-19T03:41:51.749Z,12.02
2022-10-19T03:42:51.735Z,12.03
2022-10-19T03:43:51.757Z,12.03
2022-10-19T03:44:51.735Z,12.04
2022-10-19T03:45:51.697Z,12.04
2022-10-19T03:46:51.689Z,12.06
2022-10-19T03:47:51.670Z,12.06
2022-10-19T03:48:51.662Z,12.07
2022-10-19T03:49:51.645Z,12.06
2022-10-19T03:50:51.639Z,12.06
2022-10-19T03:51:51.626Z,12.06
2022-10-19T03:52:51.629Z,12.06
2022-10-19T03:53:51.596Z,12.06
2022-10-19T03:54:51.585Z,12.07
2022-10-19T03:55:51.574Z,12.06
2022-10-19T03:56:51.564Z,12.09
2022-10-19T03:57:51.552Z,12.06
2022-10-19T03:58:51.536Z,12.06
2022-10-19T03:59:51.520Z,12.04
2022-10-19T04:00:51.556Z,12.04
2022-10-19T04:01:51.492Z,12.04
2022-10-19T04:02:51.481Z,12.06
2022-10-19T04:03:51.469Z,12.06
2022-10-19T04:04:51.460Z,12.07
2022-10-19T04:05:51.443Z,12.09
2022-10-19T04:06:51.434Z,12.10
2022-10-19T04:07:51.418Z,12.10
2022-10-19T04:08:51.404Z,12.12
2022-10-19T04:09:51.394Z,12.13
2022-10-19T04:10:51.377Z,12.13
2022-10-19T04:11:51.369Z,12.13
2022-10-19T04:12:53.849Z,12.15
2022-10-19T04:13:51.343Z,12.17
2022-10-19T04:14:57.460Z,12.18
2022-10-19T04:15:52.346Z,12.18
2022-10-19T04:16:51.330Z,12.18
2022-10-19T04:17:51.291Z,12.20
2022-10-19T04:18:51.275Z,12.21
2022-10-19T04:19:51.267Z,12.22
2022-10-19T04:20:51.254Z,12.22
2022-10-19T04:21:51.241Z,12.25
2022-10-19T04:22:51.231Z,12.27
2022-10-19T04:23:51.208Z,12.31
2022-10-19T04:24:51.199Z,12.31
2022-10-19T04:25:51.200Z,12.31
2022-10-19T04:26:51.173Z,12.36
2022-10-19T04:27:51.158Z,12.35
2022-10-19T04:28:51.206Z,12.36
2022-10-19T04:29:51.133Z,12.36
2022-10-19T04:30:51.128Z,12.37
2022-10-19T04:31:51.108Z,12.40
2022-10-19T04:32:51.119Z,12.40
2022-10-19T04:33:51.087Z,12.42
2022-10-19T04:34:51.072Z,12.43
2022-10-19T04:35:51.055Z,12.45
2022-10-19T04:36:51.045Z,12.45
2022-10-19T04:37:51.043Z,12.46
2022-10-19T04:38:51.033Z,12.46
2022-10-19T04:39:51.005Z,12.47
2022-10-19T04:40:50.999Z,12.47
2022-10-19T04:41:50.982Z,12.49
2022-10-19T04:42:50.971Z,12.49
2022-10-19T04:43:50.959Z,12.50
2022-10-19T04:44:50.945Z,12.53
2022-10-19T04:45:50.929Z,12.55
2022-10-19T04:46:50.920Z,12.55
2022-10-19T04:47:50.903Z,12.55
2022-10-19T04:48:50.918Z,12.55
2022-10-19T04:49:50.882Z,12.57
2022-10-19T04:50:50.867Z,12.57
2022-10-19T04:51:50.852Z,12.60
2022-10-19T04:52:50.840Z,12.60
2022-10-19T04:53:51.668Z,12.61
2022-10-19T04:54:50.819Z,12.61
2022-10-19T04:55:50.808Z,12.62
2022-10-19T04:56:50.789Z,12.62
2022-10-19T04:57:50.781Z,12.64
2022-10-19T04:58:50.766Z,12.65
2022-10-19T04:59:50.754Z,12.68
2022-10-19T05:00:50.847Z,12.70
2022-10-19T05:01:50.726Z,12.72
2022-10-19T05:02:50.717Z,12.73
2022-10-19T05:03:50.743Z,12.75
2022-10-19T05:04:50.715Z,12.76
2022-10-19T05:05:50.681Z,12.76
2022-10-19T05:06:50.665Z,12.80
2022-10-19T05:07:50.656Z,12.82
2022-10-19T05:08:50.637Z,12.83
2022-10-19T05:09:50.631Z,12.86
2022-10-19T05:10:50.612Z,12.90
2022-10-19T05:11:50.600Z,12.95
2022-10-19T05:12:50.586Z,13.00
2022-10-19T05:13:50.577Z,13.03
2022-10-19T05:14:50.565Z,13.05
2022-10-19T05:15:50.547Z,13.08
2022-10-19T05:16:50.536Z,13.09
2022-10-19T05:17:50.524Z,13.09
2022-10-19T05:18:50.511Z,13.08
2022-10-19T05:19:50.498Z,13.05
2022-10-19T05:20:50.580Z,13.05
2022-10-19T05:21:50.477Z,13.05
2022-10-19T05:22:50.460Z,13.09
2022-10-19T05:23:50.450Z,13.13
2022-10-19T05:24:53.339Z,13.12
2022-10-19T05:25:50.423Z,13.13
2022-10-19T05:26:50.406Z,13.15
2022-10-19T05:27:50.392Z,13.13
2022-10-19T05:28:50.436Z,13.13
2022-10-19T05:29:50.369Z,13.15
2022-10-19T05:30:50.356Z,13.15
2022-10-19T05:31:50.343Z,13.13
2022-10-19T05:32:50.326Z,13.13
2022-10-19T05:33:50.318Z,13.13
2022-10-19T05:34:50.302Z,13.13
2022-10-19T05:35:50.296Z,13.15
2022-10-19T05:36:50.304Z,13.16
2022-10-19T05:37:50.271Z,13.15
2022-10-19T05:38:50.256Z,13.16
2022-10-19T05:39:50.255Z,13.18
2022-10-19T05:40:52.970Z,13.18
2022-10-19T05:41:50.217Z,13.18
2022-10-19T05:42:50.209Z,13.19
2022-10-19T05:43:50.189Z,13.18
2022-10-19T05:44:50.181Z,13.19
2022-10-19T05:45:50.166Z,13.19
2022-10-19T05:46:50.152Z,13.18
2022-10-19T05:47:50.138Z,13.19
2022-10-19T05:48:50.124Z,13.19
2022-10-19T05:49:50.119Z,13.19
2022-10-19T05:50:50.101Z,13.20
2022-10-19T05:51:50.097Z,13.19
2022-10-19T05:52:50.103Z,13.20
2022-10-19T05:53:50.061Z,13.22
2022-10-19T05:54:50.048Z,13.20
2022-10-19T05:55:50.039Z,13.22
2022-10-19T05:56:50.023Z,13.22
2022-10-19T05:57:50.019Z,13.22
2022-10-19T05:58:49.998Z,13.20
2022-10-19T05:59:49.986Z,13.22
2022-10-19T06:00:49.974Z,13.22
2022-10-19T06:01:50.017Z,13.22
2022-10-19T06:02:49.949Z,13.22
2022-10-19T06:03:49.940Z,13.23
2022-10-19T06:04:49.921Z,13.23
2022-10-19T06:05:49.910Z,13.23
2022-10-19T06:06:49.905Z,13.25
2022-10-19T06:07:49.879Z,13.25
2022-10-19T06:08:49.911Z,13.25
2022-10-19T06:09:49.863Z,13.25
2022-10-19T06:10:49.851Z,13.27
2022-10-19T06:11:49.837Z,13.28
2022-10-19T06:12:49.823Z,13.27
2022-10-19T06:13:49.806Z,13.27
2022-10-19T06:14:49.804Z,13.28
2022-10-19T06:15:49.771Z,13.27
2022-10-19T06:16:49.773Z,13.25
2022-10-19T06:17:49.758Z,13.25
2022-10-19T06:18:49.742Z,13.27
2022-10-19T06:19:49.730Z,13.25
2022-10-19T06:20:49.718Z,13.25
2022-10-19T06:21:49.708Z,13.25
2022-10-19T06:22:49.691Z,13.27
2022-10-19T06:23:49.682Z,13.23
2022-10-19T06:24:49.692Z,13.22
2022-10-19T06:25:49.657Z,13.22
2022-10-19T06:26:49.640Z,13.22
2022-10-19T06:27:49.683Z,13.19
2022-10-19T06:28:49.613Z,13.19
2022-10-19T06:29:49.604Z,13.20
2022-10-19T06:30:49.659Z,13.16
2022-10-19T06:31:49.582Z,13.18
2022-10-19T06:32:49.624Z,13.18
2022-10-19T06:33:49.845Z,13.18
2022-10-19T06:34:51.882Z,13.18
2022-10-19T06:35:49.541Z,13.18
2022-10-19T06:36:49.512Z,13.18
2022-10-19T06:37:49.496Z,13.19
2022-10-19T06:38:49.482Z,13.19
2022-10-19T06:39:49.530Z,13.20
2022-10-19T06:40:49.482Z,13.20
2022-10-19T06:41:49.449Z,13.20
2022-10-19T06:42:49.435Z,13.20
2022-10-19T06:43:49.420Z,13.20
2022-10-19T06:44:49.410Z,13.23
2022-10-19T06:45:49.395Z,13.25
2022-10-19T06:46:49.390Z,13.25
2022-10-19T06:47:49.377Z,13.27
2022-10-19T06:48:49.361Z,13.28
2022-10-19T06:49:49.344Z,13.31
2022-10-19T06:50:49.332Z,13.35
2022-10-19T06:51:49.330Z,13.38
2022-10-19T06:52:49.305Z,13.38
2022-10-19T06:53:52.910Z,13.39
2022-10-19T06:54:50.311Z,13.39
2022-10-19T06:55:49.264Z,13.39
2022-10-19T06:57:49.242Z,13.42
2022-10-19T06:58:49.231Z,13.46
2022-10-19T06:59:51.445Z,13.47
2022-10-19T07:00:49.225Z,13.47
2022-10-19T07:01:49.191Z,13.50
2022-10-19T07:02:49.190Z,13.52
2022-10-19T07:03:49.162Z,13.49
2022-10-19T07:04:49.152Z,13.49
2022-10-19T07:05:49.139Z,13.50
2022-10-19T07:06:49.123Z,13.52
2022-10-19T07:07:49.186Z,13.53
2022-10-19T07:08:49.101Z,13.52
2022-10-19T07:09:49.087Z,13.47
2022-10-19T07:10:49.080Z,13.44
2022-10-19T07:11:49.057Z,13.47
2022-10-19T07:12:49.047Z,13.50
2022-10-19T07:13:49.060Z,13.53
2022-10-19T07:14:49.021Z,13.57
2022-10-19T07:15:49.009Z,13.57
2022-10-19T07:16:49.000Z,13.59
2022-10-19T07:17:48.981Z,13.60
2022-10-19T07:18:48.973Z,13.62
2022-10-19T07:19:48.961Z,13.62
2022-10-19T07:20:48.947Z,13.67
2022-10-19T07:21:48.929Z,13.65
2022-10-19T07:22:48.914Z,13.68
2022-10-19T07:23:48.912Z,13.68
2022-10-19T07:24:48.888Z,13.65
2022-10-19T07:25:48.883Z,13.62
2022-10-19T07:26:48.868Z,13.62
2022-10-19T07:27:48.858Z,13.63
2022-10-19T07:28:48.849Z,13.67
2022-10-19T07:29:48.851Z,13.70
2022-10-19T07:30:48.817Z,13.71
2022-10-19T07:31:48.802Z,13.72
2022-10-19T07:32:48.791Z,13.74
2022-10-19T07:33:48.779Z,13.77
2022-10-19T07:34:48.769Z,13.72
2022-10-19T07:35:48.753Z,13.70
2022-10-19T07:36:48.742Z,13.70
2022-10-19T07:37:48.729Z,13.74
2022-10-19T07:38:48.714Z,13.72
2022-10-19T07:39:48.699Z,13.75
2022-10-19T07:40:48.690Z,13.72
2022-10-19T07:41:48.674Z,13.75
2022-10-19T07:42:48.659Z,13.71
2022-10-19T07:43:48.648Z,13.70
2022-10-19T07:44:48.631Z,13.72
2022-10-19T07:45:48.649Z,13.77
2022-10-19T07:46:48.610Z,13.78
2022-10-19T07:47:48.598Z,13.78
2022-10-19T07:48:48.585Z,13.79
2022-10-19T07:49:48.570Z,13.77
2022-10-19T07:50:48.561Z,13.79
2022-10-19T07:51:48.547Z,13.81
2022-10-19T07:52:48.532Z,13.81
2022-10-19T07:53:48.517Z,13.85
2022-10-19T07:54:48.510Z,13.81
2022-10-19T07:55:48.492Z,13.78
2022-10-19T07:56:48.477Z,13.81
2022-10-19T07:57:48.469Z,13.83
2022-10-19T07:58:48.467Z,13.86
2022-10-19T07:59:48.446Z,13.81
2022-10-19T08:00:48.429Z,13.83
2022-10-19T08:01:48.533Z,13.81
2022-10-19T08:03:04.965Z,13.83
2022-10-19T08:05:00.312Z,13.90
2022-10-19T08:05:49.402Z,13.86
2022-10-19T08:06:48.353Z,13.89
2022-10-19T08:07:48.339Z,13.89
2022-10-19T08:08:48.414Z,13.90
2022-10-19T08:09:53.296Z,13.92
2022-10-19T08:10:48.300Z,13.95
2022-10-19T08:11:48.291Z,13.97
2022-10-19T08:12:48.276Z,13.99
2022-10-19T08:13:48.263Z,13.95
2022-10-19T08:14:48.297Z,13.99
2022-10-19T08:15:48.235Z,14.00
2022-10-19T08:16:48.223Z,14.05
2022-10-19T08:17:48.239Z,14.08
2022-10-19T08:18:48.203Z,14.11
2022-10-19T08:19:48.191Z,14.14
2022-10-19T08:20:48.185Z,14.17
2022-10-19T08:21:48.163Z,14.23
2022-10-19T08:22:48.152Z,14.29
2022-10-19T08:23:48.133Z,14.32
2022-10-19T08:24:48.122Z,14.36
2022-10-19T08:25:48.113Z,14.41
2022-10-19T08:26:48.097Z,14.50
2022-10-19T08:27:48.084Z,14.58
2022-10-19T08:28:48.070Z,14.60
2022-10-19T08:29:48.057Z,14.68
2022-10-19T08:30:48.055Z,14.69
2022-10-19T08:31:48.031Z,14.73
2022-10-19T08:32:48.030Z,14.77
2022-10-19T08:33:48.025Z,14.82
2022-10-19T08:34:47.993Z,14.85
2022-10-19T08:35:47.969Z,14.89
2022-10-19T08:36:47.973Z,14.92
2022-10-19T08:37:48.459Z,14.92
2022-10-19T08:38:47.941Z,14.97
2022-10-19T08:39:47.934Z,14.96
2022-10-19T08:40:47.915Z,14.97
2022-10-19T08:42:47.889Z,15.02
2022-10-19T08:43:47.881Z,15.02
2022-10-19T08:44:47.860Z,15.00
2022-10-19T08:45:47.886Z,15.00
2022-10-19T08:46:47.828Z,14.97
2022-10-19T08:47:47.826Z,14.97
2022-10-19T08:48:47.822Z,14.96
2022-10-19T08:49:47.850Z,14.99
2022-10-19T08:50:47.801Z,14.96
2022-10-19T08:51:47.776Z,14.94
2022-10-19T08:52:47.773Z,14.99
2022-10-19T08:53:47.752Z,15.04
2022-10-19T08:54:47.754Z,15.10
2022-10-19T08:55:47.733Z,15.15
2022-10-19T08:56:52.001Z,15.18
2022-10-19T08:57:47.699Z,15.22
2022-10-19T08:58:47.682Z,15.25
2022-10-19T08:59:47.672Z,15.28
2022-10-19T09:00:47.663Z,15.27
2022-10-19T09:01:47.645Z,15.24
2022-10-19T09:02:47.646Z,15.25
2022-10-19T09:03:56.035Z,15.28
2022-10-19T09:04:48.635Z,15.31
2022-10-19T09:05:47.624Z,15.36
2022-10-19T09:06:47.587Z,15.40
2022-10-19T09:07:47.585Z,15.39
2022-10-19T09:08:47.631Z,15.46
2022-10-19T09:09:47.550Z,15.46
2022-10-19T09:10:47.527Z,15.44
2022-10-19T09:11:47.524Z,15.47
2022-10-19T09:12:47.504Z,15.61
2022-10-19T09:14:04.174Z,15.62
2022-10-19T09:14:47.480Z,15.64
2022-10-19T09:15:47.469Z,15.67
2022-10-19T09:16:47.448Z,15.65
2022-10-19T09:17:47.444Z,15.55
2022-10-19T09:18:47.494Z,15.47
2022-10-19T09:19:47.417Z,15.52
2022-10-19T09:20:47.410Z,15.57
2022-10-19T09:21:47.847Z,15.61
2022-10-19T09:22:47.377Z,15.72
2022-10-19T09:23:47.375Z,15.77
2022-10-19T09:24:47.355Z,15.65
2022-10-19T09:25:47.340Z,15.70
2022-10-19T09:26:47.328Z,15.70
2022-10-19T09:27:47.326Z,15.62
2022-10-19T09:28:47.302Z,15.58
2022-10-19T09:29:47.291Z,15.62
2022-10-19T09:30:47.277Z,15.65
2022-10-19T09:31:47.328Z,15.79
2022-10-19T09:32:47.254Z,15.77
2022-10-19T09:33:47.241Z,15.80
2022-10-19T09:34:47.245Z,15.79
2022-10-19T09:35:47.214Z,15.83
2022-10-19T09:36:50.393Z,15.84
2022-10-19T09:37:47.214Z,15.91
2022-10-19T09:38:47.182Z,15.88
2022-10-19T09:39:52.401Z,15.88
2022-10-19T09:40:47.158Z,15.88
2022-10-19T09:41:47.144Z,15.82
2022-10-19T09:42:47.127Z,15.91
2022-10-19T09:43:47.124Z,15.95
2022-10-19T09:44:47.100Z,15.95
2022-10-19T09:45:47.085Z,16.10
2022-10-19T09:46:47.078Z,16.15
2022-10-19T09:47:47.062Z,16.36
2022-10-19T09:48:47.053Z,16.43
2022-10-19T09:49:47.050Z,16.60
2022-10-19T09:50:47.023Z,16.61
2022-10-19T09:51:47.016Z,16.64
2022-10-19T09:52:46.998Z,16.64
2022-10-19T09:53:47.007Z,16.58
2022-10-19T09:54:46.970Z,16.60
2022-10-19T09:55:46.958Z,16.65
2022-10-19T09:56:46.949Z,16.72
2022-10-19T09:57:46.931Z,16.87
2022-10-19T09:58:46.923Z,16.86
2022-10-19T09:59:46.903Z,16.91
2022-10-19T10:00:46.900Z,17.01
2022-10-19T10:01:47.012Z,17.02
2022-10-19T10:02:46.871Z,17.02
2022-10-19T10:03:46.872Z,17.05
2022-10-19T10:04:46.847Z,17.01
2022-10-19T10:05:46.832Z,16.74
2022-10-19T10:06:46.818Z,16.61
2022-10-19T10:07:46.810Z,16.56
2022-10-19T10:08:46.860Z,16.56
2022-10-19T10:09:46.800Z,16.71
2022-10-19T10:10:46.766Z,16.90
2022-10-19T10:11:46.798Z,16.86
2022-10-19T10:12:46.744Z,17.04
2022-10-19T10:13:46.729Z,17.22
2022-10-19T10:14:46.712Z,17.33
2022-10-19T10:15:46.701Z,17.48
2022-10-19T10:16:46.686Z,17.57
2022-10-19T10:17:46.687Z,17.65
2022-10-19T10:18:46.662Z,17.67
2022-10-19T10:19:46.652Z,17.60
2022-10-19T10:20:46.684Z,17.63
2022-10-19T10:21:46.642Z,17.45
2022-10-19T10:22:46.617Z,17.36
2022-10-19T10:23:46.598Z,17.42
2022-10-19T10:24:46.589Z,17.51
2022-10-19T10:25:46.592Z,17.49
2022-10-19T10:26:46.592Z,17.38
2022-10-19T10:27:46.546Z,17.41
2022-10-19T10:28:46.533Z,17.41
2022-10-19T10:29:46.586Z,17.15
2022-10-19T10:30:46.528Z,16.86
2022-10-19T10:31:46.499Z,16.79
2022-10-19T10:32:48.093Z,16.71
2022-10-19T10:33:46.570Z,16.54
2022-10-19T10:34:51.237Z,16.42
2022-10-19T10:35:46.445Z,16.33
2022-10-19T10:36:46.434Z,16.32
2022-10-19T10:37:46.419Z,16.31
2022-10-19T10:38:46.410Z,16.31
2022-10-19T10:39:46.396Z,16.35
2022-10-19T10:40:46.380Z,16.26
2022-10-19T10:41:46.396Z,16.32
2022-10-19T10:42:46.354Z,16.41
2022-10-19T10:43:46.362Z,16.54
2022-10-19T10:44:46.326Z,16.53
2022-10-19T10:45:46.309Z,16.61
2022-10-19T10:46:46.298Z,16.60
2022-10-19T10:47:46.290Z,16.66
2022-10-19T10:48:47.717Z,16.75
2022-10-19T10:49:46.263Z,16.61
2022-10-19T10:50:46.257Z,16.54
2022-10-19T10:51:49.314Z,16.54
2022-10-19T10:52:47.256Z,16.56
2022-10-19T10:53:46.209Z,16.60
2022-10-19T10:54:46.191Z,16.51
2022-10-19T10:55:46.179Z,16.46
2022-10-19T10:56:46.167Z,16.42
2022-10-19T10:57:46.272Z,16.41
2022-10-19T10:58:46.142Z,16.38
2022-10-19T10:59:46.130Z,16.54
2022-10-19T11:00:46.115Z,16.69
2022-10-19T11:01:46.183Z,16.87
2022-10-19T11:02:46.087Z,17.04
2022-10-19T11:03:46.076Z,17.11
2022-10-19T11:04:48.618Z,17.20
2022-10-19T11:05:47.075Z,17.26
2022-10-19T11:06:46.042Z,17.12
2022-10-19T11:07:46.026Z,17.01
2022-10-19T11:08:46.090Z,16.87
2022-10-19T11:09:45.988Z,16.91
2022-10-19T11:10:45.988Z,16.86
2022-10-19T11:11:45.966Z,16.87
2022-10-19T11:12:45.961Z,16.96
2022-10-19T11:13:45.980Z,16.91
2022-10-19T11:14:45.931Z,16.81
2022-10-19T11:15:45.922Z,16.72
2022-10-19T11:16:45.905Z,16.60
2022-10-19T11:17:45.888Z,16.54
2022-10-19T11:18:45.875Z,16.51
2022-10-19T11:19:45.864Z,16.50
2022-10-19T11:20:45.839Z,16.46
2022-10-19T11:21:45.837Z,16.54
2022-10-19T11:22:45.825Z,16.66
2022-10-19T11:23:45.808Z,16.66
2022-10-19T11:24:47.913Z,16.72
2022-10-19T11:25:45.790Z,16.58
2022-10-19T11:26:45.771Z,16.60
2022-10-19T11:27:45.759Z,16.58
2022-10-19T11:28:45.744Z,16.50
2022-10-19T11:29:45.763Z,16.46
2022-10-19T11:30:49.887Z,16.51
2022-10-19T11:31:45.713Z,16.56
2022-10-19T11:32:45.995Z,16.50
2022-10-19T11:33:45.694Z,16.36
2022-10-19T11:34:45.670Z,16.38
2022-10-19T11:35:45.649Z,16.38
2022-10-19T11:36:45.646Z,16.36
2022-10-19T11:37:50.253Z,16.32
2022-10-19T11:38:46.644Z,16.29
2022-10-19T11:39:45.598Z,16.10
2022-10-19T11:40:54.192Z,16.08
2022-10-19T11:41:46.610Z,16.10
2022-10-19T11:43:45.548Z,16.04
2022-10-19T11:44:45.531Z,16.12
2022-10-19T11:45:45.539Z,16.10
2022-10-19T11:46:45.515Z,16.08
2022-10-19T11:47:45.494Z,16.08
2022-10-19T11:48:45.485Z,16.15
2022-10-19T11:49:45.472Z,16.23
2022-10-19T11:50:53.915Z,16.23
2022-10-19T11:51:46.472Z,16.31
2022-10-19T11:52:45.436Z,16.38
2022-10-19T11:53:45.421Z,16.38
2022-10-19T11:54:45.414Z,16.43
2022-10-19T11:55:45.388Z,16.51
2022-10-19T11:57:02.171Z,16.53
2022-10-19T11:57:46.400Z,16.56
2022-10-19T11:58:45.361Z,16.53
2022-10-19T11:59:45.353Z,16.51
2022-10-19T12:00:45.321Z,16.43
2022-10-19T12:01:45.418Z,16.38
2022-10-19T12:02:45.302Z,16.32
2022-10-19T12:03:45.304Z,16.23
2022-10-19T12:04:45.295Z,16.21
2022-10-19T12:05:45.269Z,16.16
2022-10-19T12:06:45.253Z,16.20
2022-10-19T12:07:45.266Z,16.15
2022-10-19T12:08:45.366Z,15.94
2022-10-19T12:09:45.213Z,15.86
2022-10-19T12:10:45.198Z,15.82
2022-10-19T12:11:45.186Z,15.77
2022-10-19T12:12:45.167Z,15.84
2022-10-19T12:13:45.158Z,15.97
2022-10-19T12:14:45.154Z,15.95
2022-10-19T12:15:45.129Z,15.97
2022-10-19T12:16:45.124Z,16.08
2022-10-19T12:17:45.140Z,16.21
2022-10-19T12:18:45.111Z,16.35
2022-10-19T12:19:45.081Z,16.49
2022-10-19T12:20:45.069Z,16.56
2022-10-19T12:21:45.051Z,16.60
2022-10-19T12:22:45.041Z,16.69
2022-10-19T12:23:45.027Z,16.74
2022-10-19T12:24:45.025Z,16.72
2022-10-19T12:25:45.001Z,16.66
2022-10-19T12:26:45.000Z,16.69
2022-10-19T12:27:44.976Z,16.68
2022-10-19T12:28:44.960Z,16.66
2022-10-19T12:29:44.948Z,16.68
2022-10-19T12:30:44.941Z,16.69
2022-10-19T12:31:44.917Z,16.71
2022-10-19T12:32:44.901Z,16.66
2022-10-19T12:33:44.951Z,16.60
2022-10-19T12:34:44.890Z,16.56
2022-10-19T12:35:44.875Z,16.57
2022-10-19T12:36:44.861Z,16.57
2022-10-19T12:37:44.842Z,16.54
2022-10-19T12:38:46.890Z,16.47
2022-10-19T12:39:44.814Z,16.31
2022-10-19T12:40:44.801Z,16.02
2022-10-19T12:41:44.781Z,15.82
2022-10-19T12:42:44.781Z,15.68
2022-10-19T12:43:44.769Z,15.54
2022-10-19T12:44:44.762Z,15.42
2022-10-19T12:45:44.746Z,15.36
2022-10-19T12:46:48.352Z,15.29
2022-10-19T12:47:45.739Z,15.29
2022-10-19T12:48:44.702Z,15.29
2022-10-19T12:49:44.719Z,15.25
2022-10-19T12:50:44.668Z,15.19
2022-10-19T12:51:44.666Z,15.15
2022-10-19T12:52:44.658Z,15.15
2022-10-19T12:53:44.638Z,15.14
2022-10-19T12:54:44.626Z,15.15
2022-10-19T12:55:45.672Z,15.07
2022-10-19T12:56:44.610Z,15.09
2022-10-19T12:57:44.581Z,15.14
2022-10-19T12:58:46.667Z,15.17
2022-10-19T12:59:44.571Z,15.18
2022-10-19T13:00:44.580Z,15.14